Riceland, OH

9:48 PM EDT on March 30, 2017 (GMT -0400)
MOH089 | | Change Station

Elev 1039 ft 40.80 °N, 81.76 °W | Updated 10 hours ago

Light Rain
Light Rain
48.0 °F
Feels Like 45 °F
N
6.0
Wind Variable Wind from ESE
Gusts 10.0 mph

Today
High -- | Low -- °F
--% Chance of Precip.
Yesterday
High -- | Low -- °F
Precip. -- in
Pressure 29.71 in
Visibility 10.0 miles
Clouds Mostly Cloudy 5500 ft
Mostly Cloudy 7000 ft
Windchill 45 °F
Dew Point 35.0 °F
Humidity 61%
Rainfall in
Snow Depth Not available.
7:13 AM 7:50 PM
Waxing Crescent, 12% visible
METAR KBJJ 310056Z AUTO 11010KT 10SM -RA BKN055 BKN070 11/07 A2970 RMK AO2 LTG DSNT SE AND W RAB50 SLP059 P0000 T01060072
Pressure 29.71 in
Visibility 10.0 miles
Clouds Mostly Cloudy 5500 ft
Mostly Cloudy 7000 ft
Windchill 45 °F
Dew Point 35.0 °F
Humidity 61%
Rainfall in
Snow Depth Not available.
7:13 AM 7:50 PM
Waxing Crescent, 12% visible
METAR KBJJ 310056Z AUTO 11010KT 10SM -RA BKN055 BKN070 11/07 A2970 RMK AO2 LTG DSNT SE AND W RAB50 SLP059 P0000 T01060072

Get Severe Weather Alerts

Thanks for signing up!

Be on the lookout for a verification email in your inbox.

You'll start receiving the daily forecast at 8 AM.

×

10-Day Weather Forecast

Almanac

Astronomy

Mar. 30, 2017 Rise Set
Actual Time
Civil Twilight
Nautical Twilight
Astronomical Twilight
Moon
Length of Visible Light
Length of Day
Tomorrow will be .
, % of the Moon is Illuminated

Today's Extremes

State Highs State Lows

Community

WunderPhotos

Upload Photos

1,962,540 photos uploaded!

WunderBlog® & News

Nearby

Air Quality

  Air Quality AQ Index Pollutant
Not available.

Snow Depth

Station Depth Elevation

Earthquake Activity

City Distance Mag. Time & Date
Minimum magnitude displayed is 2.5.

Earthquake Activity

City Distance Mag. Time & Date
Minimum magnitude displayed is 2.5.

Coastal Water Temperatures

Place Temperature

Stations

Nearby Weather Stations

Station Location Temp. Windchill Dew Point Humidity Wind Precip. Elev Updated Type
                   

Watches & Warnings

There are currently no watches in effect.